Sikinos — 9HA2865 — position and weather

sailwx.info

Track history (hours):
 
Tides and Currents Weather Stations Pressure Air Temp Water Temp Dewpoint Dewpoint Depression Visibility Wind Speed Wind Dir Waves Ship Positions

Sikinos

Last reported at 2015-Aug-02 07:33 UTC. Time now 2015-Aug-02 08:19 UTC.
Position N 51°25' E 001°24'.

Length 90 m; draft 5.1 m.

Type: Ship (hazmat cat A). MMSI: 256462000.

Date/timePositionNaut miles runAvg speedWind from/ knotsBaromVisibWave heightAir tempDewpointWater temp
2015-Aug-02 07:33N 51°25' E 001°24'0 0.0
2015-Aug-02 06:33N 51°25' E 001°24'0 0.0
2015-Aug-02 05:33N 51°25' E 001°24'0 0.0
2015-Aug-02 04:33N 51°25' E 001°24'0 0.0
2015-Aug-02 03:33N 51°25' E 001°24'0 0.0
2015-Aug-02 02:33N 51°25' E 001°24'0 0.0
2015-Aug-02 01:33N 51°25' E 001°24'0 0.1
2015-Aug-02 00:33N 51°25' E 001°24'0 0.0
2015-Aug-01 23:33N 51°25' E 001°24'0 0.0
2015-Aug-01 22:33N 51°25' E 001°24'0 0.0
2015-Aug-01 21:33N 51°25' E 001°24'0 0.1
2015-Aug-01 20:33N 51°25' E 001°24'3 3.1
2015-Aug-01 19:34N 51°26' E 001°28'1111.1
2015-Aug-01 18:33N 51°34' E 001°41'1010.4
2015-Aug-01 17:34N 51°44' E 001°43'1010.0
2015-Aug-01 16:33N 51°52' E 001°34'9 9.1
2015-Aug-01 15:33N 51°55' E 001°20'3 3.2
2015-Aug-01 14:31N 51°57' E 001°15'0 0.0
2015-Aug-01 13:32N 51°57' E 001°15'0 0.0
2015-Aug-01 12:31N 51°57' E 001°15'0 0.0
2015-Aug-01 11:31N 51°57' E 001°15'0 0.0
2015-Aug-01 10:31N 51°57' E 001°15'0 0.0
2015-Aug-01 09:31N 51°57' E 001°15'0 0.0
2015-Aug-01 08:28N 51°57' E 001°15'1 1.0
2015-Aug-01 07:33N 51°57' E 001°17'8 8.3
2015-Aug-01 06:33N 51°57' E 001°30'1 0.9
2015-Aug-01 05:31N 51°58' E 001°31'0 0.0
2015-Aug-01 04:31N 51°58' E 001°31'0 0.0
2015-Aug-01 03:31N 51°58' E 001°31'0 0.0
2015-Aug-01 02:31N 51°58' E 001°31'0 0.0
2015-Aug-01 01:31N 51°58' E 001°31'0 0.0
2015-Aug-01 00:31N 51°58' E 001°31'0 0.1
2015-Jul-31 23:31N 51°58' E 001°31'0 0.1
2015-Jul-31 22:31N 51°57' E 001°31'0 0.0
2015-Jul-31 21:31N 51°57' E 001°31'0 0.0
2015-Jul-31 20:31N 51°57' E 001°31'0 0.0
2015-Jul-31 19:31N 51°57' E 001°31'0 0.0
2015-Jul-31 18:31N 51°57' E 001°31'0 0.1
2015-Jul-31 17:31N 51°58' E 001°31'2 1.8
2015-Jul-31 16:33N 51°56' E 001°33'9 8.7
2015-Jul-31 15:33N 51°51' E 001°45'1212.0
2015-Jul-31 14:33N 51°40' E 001°50'1313.1
2015-Jul-31 13:34N 51°29' E 001°37'9 9.3
2015-Jul-31 12:33N 51°25' E 001°24'0 0.0
2015-Jul-31 11:33N 51°25' E 001°24'0 0.0
2015-Jul-31 10:33N 51°25' E 001°24'0 0.0
2015-Jul-31 09:33N 51°25' E 001°24'0 0.0
2015-Jul-31 08:33N 51°25' E 001°24'0 0.0
2015-Jul-31 07:33N 51°25' E 001°24'0 0.1
2015-Jul-31 06:33N 51°25' E 001°24'0 0.0
2015-Jul-31 05:33N 51°25' E 001°24'0 0.0
2015-Jul-31 04:33N 51°25' E 001°24'0 0.0
2015-Jul-31 03:33N 51°25' E 001°24'0 0.0
2015-Jul-31 02:33N 51°25' E 001°24'0 0.0
2015-Jul-31 01:33N 51°25' E 001°24'0 0.1
2015-Jul-31 00:33N 51°25' E 001°24'0 0.1
2015-Jul-30 23:33N 51°25' E 001°24'0 0.0
2015-Jul-30 22:33N 51°25' E 001°24'0 0.0
2015-Jul-30 21:33N 51°25' E 001°24'0 0.1
2015-Jul-30 20:33N 51°25' E 001°24'0 0.0
2015-Jul-30 19:33N 51°25' E 001°24'0 0.0
2015-Jul-30 18:33N 51°25' E 001°24'0 0.1
2015-Jul-30 17:33N 51°25' E 001°24'0 0.0
2015-Jul-30 16:33N 51°25' E 001°24'0 0.0
2015-Jul-30 15:33N 51°25' E 001°24'4 4.1
2015-Jul-30 14:33N 51°25' E 001°31'1111.0
2015-Jul-30 13:33N 51°15' E 001°38'1010.1
2015-Jul-30 12:34N 51°05' E 001°42'8 8.2
2015-Jul-30 11:33N 51°03' E 001°55'10 9.4
2015-Jul-30 10:30N 51°03' E 002°10'5 0.3
2015-Jul-29 20:30N 51°03' E 002°03'9 9.5
2015-Jul-29 19:33N 51°03' E 001°49'7 7.1
2015-Jul-29 18:33N 51°07' E 001°40'1312.7
2015-Jul-29 17:34N 51°17' E 001°51'1110.6
2015-Jul-29 16:34N 51°24' E 002°04'1110.9
2015-Jul-29 15:33N 51°21' E 002°22'1210.7
2015-Jul-29 14:28N 51°23' E 002°40'8 8.6
2015-Jul-29 13:33N 51°22' E 002°53'10 9.8
2015-Jul-29 12:33N 51°22' E 003°08'3 0.1
2015-Jul-28 15:33N 51°20' E 003°12'6 6.2
2015-Jul-28 14:33N 51°22' E 003°02'1211.7
2015-Jul-28 13:33N 51°22' E 002°43'5 4.8
2015-Jul-28 12:33N 51°21' E 002°36'7 7.1
2015-Jul-28 11:33N 51°20' E 002°24'1313.1
2015-Jul-28 10:32N 51°13' E 002°06'1313.6
2015-Jul-28 09:33N 51°07' E 001°48'1414.1
2015-Jul-28 08:33N 50°57' E 001°32'13510.4
2015-Jul-27 19:34N 50°27' W 001°56'1212.0
2015-Jul-27 18:32N 50°32' W 002°14'31 0.7
2015-Jul-25 22:13N 50°30' W 001°25'812.3
2015-Jul-25 21:32N 50°30' W 001°12'1312.4
2015-Jul-25 20:29N 50°30' W 000°52'3511.5
2015-Jul-25 17:26N 50°33' E 000°03'910.7
2015-Jul-25 16:33N 50°36' E 000°17'1010.5
2015-Jul-25 15:33N 50°39' E 000°33'1110.7
2015-Jul-25 14:33N 50°44' E 000°47'1211.7
2015-Jul-25 13:33N 50°51' E 001°02'1313.0
2015-Jul-25 12:33N 50°60' E 001°18'1413.7
2015-Jul-25 11:33N 51°08' E 001°35'1212.3
2015-Jul-25 10:33N 51°17' E 001°49'1111.0
2015-Jul-25 09:33N 51°26' E 001°59'10 9.8
2015-Jul-25 08:33N 51°33' E 002°10'6611.0
2015-Jul-25 02:32N 52°25' E 003°16'4911.9
2015-Jul-24 22:28N 53°02' E 004°08'1211.1
2015-Jul-24 21:20N 53°10' E 004°24'810.7
2015-Jul-24 20:33N 53°18' E 004°30'2311.3
2015-Jul-24 18:33N 53°32' E 004°58'1313.2
2015-Jul-24 17:33N 53°37' E 005°19'1312.8
2015-Jul-24 16:33N 53°41' E 005°40'1212.2
2015-Jul-24 15:33N 53°45' E 005°59'1111.4
2015-Jul-24 14:33N 53°49' E 006°17'3510.8
2015-Jul-24 11:21N 53°57' E 007°15'911.5
2015-Jul-24 10:33N 53°59' E 007°30'9 9.4
2015-Jul-24 09:33N 53°55' E 007°44'1110.9
2015-Jul-24 08:33N 53°51' E 008°02'1413.7
2015-Jul-24 07:33N 53°42' E 008°19'1312.7
2015-Jul-24 06:33N 53°33' E 008°34'2 1.5
2015-Jul-24 05:32N 53°31' E 008°34'0 0.0
2015-Jul-24 04:32N 53°31' E 008°34'0 0.0
2015-Jul-24 03:32N 53°31' E 008°34'0 0.0
2015-Jul-24 02:32N 53°31' E 008°34'0 0.0
2015-Jul-24 01:32N 53°31' E 008°34'0 0.1
2015-Jul-24 00:32N 53°31' E 008°34'0 0.1
2015-Jul-23 23:31N 53°32' E 008°34'0 0.0
2015-Jul-23 22:32N 53°32' E 008°34'0 0.0
2015-Jul-23 21:32N 53°32' E 008°34'0 0.0
2015-Jul-23 20:32N 53°32' E 008°34'0 0.1
2015-Jul-23 19:31N 53°32' E 008°34'5 5.2
2015-Jul-23 18:33N 53°36' E 008°30'1010.1
2015-Jul-23 17:33N 53°43' E 008°17'1110.7
2015-Jul-23 16:33N 53°50' E 008°04'3 3.5
2015-Jul-23 15:33N 53°47' E 008°03'10 9.9
2015-Jul-23 14:34N 53°38' E 008°09'3 2.4
2015-Jul-23 13:31N 53°35' E 008°09'0 0.0
2015-Jul-23 12:31N 53°35' E 008°09'0 0.0
2015-Jul-23 11:25N 53°35' E 008°09'0 0.0
2015-Jul-23 10:31N 53°35' E 008°09'0 0.0
2015-Jul-23 09:31N 53°35' E 008°09'0 0.0
2015-Jul-23 08:31N 53°35' E 008°09'  
Track history (hours):
 
Tides and Currents Weather Stations Pressure Air Temp Water Temp Dewpoint Dewpoint Depression Visibility Wind Speed Wind Dir Waves Ship Positions

Sikinos

Last reported at 2015-Aug-02 07:33 UTC. Time now 2015-Aug-02 08:19 UTC.
Position N 51°25' E 001°24'.

Length 90 m; draft 5.1 m.

Type: Ship (hazmat cat A). MMSI: 256462000.

Date/timePositionNaut miles runAvg speedWind from/ knotsBaromVisibWave heightAir tempDewpointWater temp
2015-Aug-02 07:33N 51°25' E 001°24'0 0.0
2015-Aug-02 06:33N 51°25' E 001°24'0 0.0
2015-Aug-02 05:33N 51°25' E 001°24'0 0.0
2015-Aug-02 04:33N 51°25' E 001°24'0 0.0
2015-Aug-02 03:33N 51°25' E 001°24'0 0.0
2015-Aug-02 02:33N 51°25' E 001°24'0 0.0
2015-Aug-02 01:33N 51°25' E 001°24'0 0.1
2015-Aug-02 00:33N 51°25' E 001°24'0 0.0
2015-Aug-01 23:33N 51°25' E 001°24'0 0.0
2015-Aug-01 22:33N 51°25' E 001°24'0 0.0
2015-Aug-01 21:33N 51°25' E 001°24'0 0.1
2015-Aug-01 20:33N 51°25' E 001°24'3 3.1
2015-Aug-01 19:34N 51°26' E 001°28'1111.1
2015-Aug-01 18:33N 51°34' E 001°41'1010.4
2015-Aug-01 17:34N 51°44' E 001°43'1010.0
2015-Aug-01 16:33N 51°52' E 001°34'9 9.1
2015-Aug-01 15:33N 51°55' E 001°20'3 3.2
2015-Aug-01 14:31N 51°57' E 001°15'0 0.0
2015-Aug-01 13:32N 51°57' E 001°15'0 0.0
2015-Aug-01 12:31N 51°57' E 001°15'0 0.0
2015-Aug-01 11:31N 51°57' E 001°15'0 0.0
2015-Aug-01 10:31N 51°57' E 001°15'0 0.0
2015-Aug-01 09:31N 51°57' E 001°15'0 0.0
2015-Aug-01 08:28N 51°57' E 001°15'1 1.0
2015-Aug-01 07:33N 51°57' E 001°17'8 8.3
2015-Aug-01 06:33N 51°57' E 001°30'1 0.9
2015-Aug-01 05:31N 51°58' E 001°31'0 0.0
2015-Aug-01 04:31N 51°58' E 001°31'0 0.0
2015-Aug-01 03:31N 51°58' E 001°31'0 0.0
2015-Aug-01 02:31N 51°58' E 001°31'0 0.0
2015-Aug-01 01:31N 51°58' E 001°31'0 0.0
2015-Aug-01 00:31N 51°58' E 001°31'0 0.1
2015-Jul-31 23:31N 51°58' E 001°31'0 0.1
2015-Jul-31 22:31N 51°57' E 001°31'0 0.0
2015-Jul-31 21:31N 51°57' E 001°31'0 0.0
2015-Jul-31 20:31N 51°57' E 001°31'0 0.0
2015-Jul-31 19:31N 51°57' E 001°31'0 0.0
2015-Jul-31 18:31N 51°57' E 001°31'0 0.1
2015-Jul-31 17:31N 51°58' E 001°31'2 1.8
2015-Jul-31 16:33N 51°56' E 001°33'9 8.7
2015-Jul-31 15:33N 51°51' E 001°45'1212.0
2015-Jul-31 14:33N 51°40' E 001°50'1313.1
2015-Jul-31 13:34N 51°29' E 001°37'9 9.3
2015-Jul-31 12:33N 51°25' E 001°24'0 0.0
2015-Jul-31 11:33N 51°25' E 001°24'0 0.0
2015-Jul-31 10:33N 51°25' E 001°24'0 0.0
2015-Jul-31 09:33N 51°25' E 001°24'0 0.0
2015-Jul-31 08:33N 51°25' E 001°24'0 0.0
2015-Jul-31 07:33N 51°25' E 001°24'0 0.1
2015-Jul-31 06:33N 51°25' E 001°24'0 0.0
2015-Jul-31 05:33N 51°25' E 001°24'0 0.0
2015-Jul-31 04:33N 51°25' E 001°24'0 0.0
2015-Jul-31 03:33N 51°25' E 001°24'0 0.0
2015-Jul-31 02:33N 51°25' E 001°24'0 0.0
2015-Jul-31 01:33N 51°25' E 001°24'0 0.1
2015-Jul-31 00:33N 51°25' E 001°24'0 0.1
2015-Jul-30 23:33N 51°25' E 001°24'0 0.0
2015-Jul-30 22:33N 51°25' E 001°24'0 0.0
2015-Jul-30 21:33N 51°25' E 001°24'0 0.1
2015-Jul-30 20:33N 51°25' E 001°24'0 0.0
2015-Jul-30 19:33N 51°25' E 001°24'0 0.0
2015-Jul-30 18:33N 51°25' E 001°24'0 0.1
2015-Jul-30 17:33N 51°25' E 001°24'0 0.0
2015-Jul-30 16:33N 51°25' E 001°24'0 0.0
2015-Jul-30 15:33N 51°25' E 001°24'4 4.1
2015-Jul-30 14:33N 51°25' E 001°31'1111.0
2015-Jul-30 13:33N 51°15' E 001°38'1010.1
2015-Jul-30 12:34N 51°05' E 001°42'8 8.2
2015-Jul-30 11:33N 51°03' E 001°55'10 9.4
2015-Jul-30 10:30N 51°03' E 002°10'5 0.3
2015-Jul-29 20:30N 51°03' E 002°03'9 9.5
2015-Jul-29 19:33N 51°03' E 001°49'7 7.1
2015-Jul-29 18:33N 51°07' E 001°40'1312.7
2015-Jul-29 17:34N 51°17' E 001°51'1110.6
2015-Jul-29 16:34N 51°24' E 002°04'1110.9
2015-Jul-29 15:33N 51°21' E 002°22'1210.7
2015-Jul-29 14:28N 51°23' E 002°40'8 8.6
2015-Jul-29 13:33N 51°22' E 002°53'10 9.8
2015-Jul-29 12:33N 51°22' E 003°08'3 0.1
2015-Jul-28 15:33N 51°20' E 003°12'6 6.2
2015-Jul-28 14:33N 51°22' E 003°02'1211.7
2015-Jul-28 13:33N 51°22' E 002°43'5 4.8
2015-Jul-28 12:33N 51°21' E 002°36'7 7.1
2015-Jul-28 11:33N 51°20' E 002°24'1313.1
2015-Jul-28 10:32N 51°13' E 002°06'1313.6
2015-Jul-28 09:33N 51°07' E 001°48'1414.1
2015-Jul-28 08:33N 50°57' E 001°32'13510.4
2015-Jul-27 19:34N 50°27' W 001°56'1212.0
2015-Jul-27 18:32N 50°32' W 002°14'31 0.7
2015-Jul-25 22:13N 50°30' W 001°25'812.3
2015-Jul-25 21:32N 50°30' W 001°12'1312.4
2015-Jul-25 20:29N 50°30' W 000°52'3511.5
2015-Jul-25 17:26N 50°33' E 000°03'910.7
2015-Jul-25 16:33N 50°36' E 000°17'1010.5
2015-Jul-25 15:33N 50°39' E 000°33'1110.7
2015-Jul-25 14:33N 50°44' E 000°47'1211.7
2015-Jul-25 13:33N 50°51' E 001°02'1313.0
2015-Jul-25 12:33N 50°60' E 001°18'1413.7
2015-Jul-25 11:33N 51°08' E 001°35'1212.3
2015-Jul-25 10:33N 51°17' E 001°49'1111.0
2015-Jul-25 09:33N 51°26' E 001°59'10 9.8
2015-Jul-25 08:33N 51°33' E 002°10'6611.0
2015-Jul-25 02:32N 52°25' E 003°16'4911.9
2015-Jul-24 22:28N 53°02' E 004°08'1211.1
2015-Jul-24 21:20N 53°10' E 004°24'810.7
2015-Jul-24 20:33N 53°18' E 004°30'2311.3
2015-Jul-24 18:33N 53°32' E 004°58'1313.2
2015-Jul-24 17:33N 53°37' E 005°19'1312.8
2015-Jul-24 16:33N 53°41' E 005°40'1212.2
2015-Jul-24 15:33N 53°45' E 005°59'1111.4
2015-Jul-24 14:33N 53°49' E 006°17'3510.8
2015-Jul-24 11:21N 53°57' E 007°15'911.5
2015-Jul-24 10:33N 53°59' E 007°30'9 9.4
2015-Jul-24 09:33N 53°55' E 007°44'1110.9
2015-Jul-24 08:33N 53°51' E 008°02'1413.7
2015-Jul-24 07:33N 53°42' E 008°19'1312.7
2015-Jul-24 06:33N 53°33' E 008°34'2 1.5
2015-Jul-24 05:32N 53°31' E 008°34'0 0.0
2015-Jul-24 04:32N 53°31' E 008°34'0 0.0
2015-Jul-24 03:32N 53°31' E 008°34'0 0.0
2015-Jul-24 02:32N 53°31' E 008°34'0 0.0
2015-Jul-24 01:32N 53°31' E 008°34'0 0.1
2015-Jul-24 00:32N 53°31' E 008°34'0 0.1
2015-Jul-23 23:31N 53°32' E 008°34'0 0.0
2015-Jul-23 22:32N 53°32' E 008°34'0 0.0
2015-Jul-23 21:32N 53°32' E 008°34'0 0.0
2015-Jul-23 20:32N 53°32' E 008°34'0 0.1
2015-Jul-23 19:31N 53°32' E 008°34'5 5.2
2015-Jul-23 18:33N 53°36' E 008°30'1010.1
2015-Jul-23 17:33N 53°43' E 008°17'1110.7
2015-Jul-23 16:33N 53°50' E 008°04'3 3.5
2015-Jul-23 15:33N 53°47' E 008°03'10 9.9
2015-Jul-23 14:34N 53°38' E 008°09'3 2.4
2015-Jul-23 13:31N 53°35' E 008°09'0 0.0
2015-Jul-23 12:31N 53°35' E 008°09'0 0.0
2015-Jul-23 11:25N 53°35' E 008°09'0 0.0
2015-Jul-23 10:31N 53°35' E 008°09'0 0.0
2015-Jul-23 09:31N 53°35' E 008°09'0 0.0
2015-Jul-23 08:31N 53°35' E 008°09'  

Dump ship's entire track history